createdAt,value
2023-03-07T00:00:35.648Z,99572.28
2023-03-07T00:03:08.097Z,99575.72
2023-03-07T00:05:40.560Z,99567.09
2023-03-07T00:08:12.800Z,99567.97
2023-03-07T00:10:44.807Z,99557.59
2023-03-07T00:13:16.760Z,99557.59
2023-03-07T00:15:48.795Z,99547.28
2023-03-07T00:18:21.024Z,99550.72
2023-03-07T00:21:06.374Z,99555.03
2023-03-07T00:23:44.667Z,99544.69
2023-03-07T00:26:23.119Z,99549.78
2023-03-07T00:28:56.034Z,99542.91
2023-03-07T00:31:28.705Z,99550.66
2023-03-07T00:34:00.726Z,99540.34
2023-03-07T00:36:32.701Z,99536.88
2023-03-07T00:39:04.975Z,99536.88
2023-03-07T00:41:37.426Z,99533.38
2023-03-07T00:44:09.930Z,99526.50
2023-03-07T00:46:41.942Z,99529.09
2023-03-07T00:49:13.932Z,99508.50
2023-03-07T00:51:46.087Z,99505.09
2023-03-07T00:54:18.330Z,99503.38
2023-03-07T00:56:50.434Z,99503.38
2023-03-07T00:59:23.031Z,99506.84
2023-03-07T01:01:55.030Z,99499.06
2023-03-07T01:04:27.079Z,99494.66
2023-03-07T01:06:59.050Z,99486.06
2023-03-07T01:09:31.005Z,99484.41
2023-03-07T01:12:07.269Z,99477.53
2023-03-07T01:14:39.237Z,99475.81
2023-03-07T01:17:11.183Z,99472.38
2023-03-07T01:19:43.120Z,99469.78
2023-03-07T01:22:15.095Z,99475.78
2023-03-07T01:24:47.009Z,99469.78
2023-03-07T01:27:19.007Z,99466.34
2023-03-07T01:29:51.103Z,99458.59
2023-03-07T01:32:23.234Z,99468.09
2023-03-07T01:34:55.263Z,99462.88
2023-03-07T01:37:27.277Z,99449.94
2023-03-07T01:39:59.214Z,99447.41
2023-03-07T01:42:32.257Z,99449.06
2023-03-07T01:45:28.922Z,99448.19
2023-03-07T01:48:01.008Z,99435.34
2023-03-07T01:50:35.943Z,99437.09
2023-03-07T01:53:09.210Z,99435.34
2023-03-07T01:55:41.195Z,99434.50
2023-03-07T01:58:15.418Z,99426.75
2023-03-07T02:00:47.451Z,99426.75
2023-03-07T02:03:40.080Z,99423.34
2023-03-07T02:06:14.674Z,99417.31
2023-03-07T02:08:49.557Z,99415.59
2023-03-07T02:11:22.002Z,99419.03
2023-03-07T02:14:01.059Z,99420.75
2023-03-07T02:16:33.032Z,99411.28
2023-03-07T02:19:27.326Z,99407.00
2023-03-07T02:22:14.915Z,99394.09
2023-03-07T02:25:11.122Z,99405.28
2023-03-07T02:27:44.198Z,99394.09
2023-03-07T02:30:17.025Z,99392.34
2023-03-07T02:32:49.101Z,99393.22
2023-03-07T02:35:24.934Z,99386.34
2023-03-07T02:38:01.648Z,99383.75
2023-03-07T02:40:33.903Z,99379.47
2023-03-07T02:43:09.632Z,99379.44
2023-03-07T02:45:41.668Z,99367.38
2023-03-07T02:48:13.679Z,99365.69
2023-03-07T02:50:45.692Z,99364.81
2023-03-07T02:53:17.616Z,99369.09
2023-03-07T02:55:49.670Z,99367.41
2023-03-07T02:58:22.059Z,99357.94
2023-03-07T03:00:54.007Z,99369.09
2023-03-07T03:03:26.153Z,99363.09
2023-03-07T03:05:58.277Z,99365.66
2023-03-07T03:08:30.710Z,99365.66
2023-03-07T03:11:02.720Z,99363.06
2023-03-07T03:13:34.782Z,99358.78
2023-03-07T03:16:07.558Z,99352.78
2023-03-07T03:18:39.597Z,99355.31
2023-03-07T03:21:12.368Z,99352.75
2023-03-07T03:23:44.378Z,99343.28
2023-03-07T03:26:16.864Z,99346.75
2023-03-07T03:28:49.047Z,99350.16
2023-03-07T03:31:21.099Z,99343.28
2023-03-07T03:33:53.426Z,99348.47
2023-03-07T03:36:27.473Z,99350.16
2023-03-07T03:39:00.436Z,99354.47
2023-03-07T03:41:32.514Z,99357.03
2023-03-07T03:44:04.804Z,99351.91
2023-03-07T03:46:37.538Z,99348.44
2023-03-07T03:49:13.680Z,99348.47
2023-03-07T03:51:45.665Z,99351.91
2023-03-07T03:54:17.842Z,99347.59
2023-03-07T03:56:49.798Z,99342.41
2023-03-07T03:59:22.459Z,99334.66
2023-03-07T04:01:55.463Z,99341.56
2023-03-07T04:04:27.453Z,99332.09
2023-03-07T04:06:59.418Z,99327.78
2023-03-07T04:09:32.127Z,99332.09
2023-03-07T04:12:04.252Z,99332.09
2023-03-07T04:14:36.196Z,99327.78
2023-03-07T04:17:08.163Z,99331.22
2023-03-07T04:19:40.106Z,99326.94
2023-03-07T04:22:12.063Z,99327.78
2023-03-07T04:24:45.455Z,99326.94
2023-03-07T04:27:17.908Z,99332.94
2023-03-07T04:29:49.916Z,99313.16
2023-03-07T04:32:21.930Z,99314.88
2023-03-07T04:34:53.990Z,99325.19
2023-03-07T04:37:25.960Z,99313.16
2023-03-07T04:39:58.252Z,99305.41
2023-03-07T04:42:30.245Z,99303.69
2023-03-07T04:45:04.658Z,99311.41
2023-03-07T04:47:37.022Z,99307.97
2023-03-07T04:50:10.513Z,99306.25
2023-03-07T04:52:42.689Z,99307.13
2023-03-07T04:55:15.084Z,99303.69
2023-03-07T04:57:47.715Z,99308.00
2023-03-07T05:00:20.536Z,99303.69
2023-03-07T05:02:52.513Z,99312.28
2023-03-07T05:05:24.539Z,99303.69
2023-03-07T05:07:56.551Z,99304.53
2023-03-07T05:10:29.373Z,99304.53
2023-03-07T05:13:01.865Z,99303.66
2023-03-07T05:15:38.987Z,99307.97
2023-03-07T05:18:11.040Z,99304.53
2023-03-07T05:20:43.344Z,99303.66
2023-03-07T05:23:15.565Z,99299.34
2023-03-07T05:25:47.590Z,99295.91
2023-03-07T05:28:19.789Z,99300.22
2023-03-07T05:30:52.780Z,99296.78
2023-03-07T05:33:25.576Z,99309.69
2023-03-07T05:36:01.323Z,99308.84
2023-03-07T05:38:33.348Z,99310.56
2023-03-07T05:41:05.499Z,99295.91
2023-03-07T05:43:37.436Z,99295.06
2023-03-07T05:46:09.432Z,99295.94
2023-03-07T05:48:42.117Z,99296.78
2023-03-07T05:51:14.121Z,99310.56
2023-03-07T05:53:48.356Z,99294.19
2023-03-07T05:56:20.316Z,99292.47
2023-03-07T05:58:52.531Z,99307.97
2023-03-07T06:01:24.455Z,99302.81
2023-03-07T06:03:57.101Z,99308.84
2023-03-07T06:06:29.202Z,99303.69
2023-03-07T06:09:01.323Z,99302.81
2023-03-07T06:11:33.982Z,99312.28
2023-03-07T06:14:05.983Z,99311.44
2023-03-07T06:16:38.038Z,99301.97
2023-03-07T06:19:10.007Z,99304.56
2023-03-07T06:21:44.013Z,99310.56
2023-03-07T06:24:15.982Z,99307.13
2023-03-07T06:26:48.070Z,99303.69
2023-03-07T06:29:20.058Z,99306.25
2023-03-07T06:31:52.013Z,99315.72
2023-03-07T06:34:25.259Z,99307.97
2023-03-07T06:36:57.300Z,99295.94
2023-03-07T06:39:31.314Z,99306.25
2023-03-07T06:42:03.500Z,99321.75
2023-03-07T06:44:35.910Z,99315.72
2023-03-07T06:47:07.927Z,99328.63
2023-03-07T06:49:39.867Z,99320.88
2023-03-07T06:52:11.961Z,99325.19
2023-03-07T06:54:43.987Z,99333.81
2023-03-07T06:57:16.147Z,99339.84
2023-03-07T06:59:48.125Z,99333.78
2023-03-07T07:02:20.201Z,99334.63
2023-03-07T07:04:52.388Z,99331.16
2023-03-07T07:07:25.510Z,99327.72
2023-03-07T07:09:57.704Z,99322.53
2023-03-07T07:12:29.713Z,99334.56
2023-03-07T07:15:05.815Z,99325.06
2023-03-07T07:17:41.180Z,99333.69
2023-03-07T07:20:13.788Z,99337.09
2023-03-07T07:22:46.434Z,99331.06
2023-03-07T07:25:18.596Z,99328.47
2023-03-07T07:27:52.511Z,99338.81
2023-03-07T07:30:25.237Z,99331.84
2023-03-07T07:32:57.291Z,99354.28
2023-03-07T07:35:29.523Z,99351.69
2023-03-07T07:38:01.536Z,99344.69
2023-03-07T07:40:33.579Z,99348.94
2023-03-07T07:43:06.175Z,99358.41
2023-03-07T07:45:38.216Z,99363.72
2023-03-07T07:48:10.369Z,99366.31
2023-03-07T07:50:42.393Z,99382.72
2023-03-07T07:53:17.078Z,99372.34
2023-03-07T07:55:49.132Z,99377.47
2023-03-07T07:58:21.312Z,99383.50
2023-03-07T08:00:53.525Z,99385.22
2023-03-07T08:03:25.589Z,99375.78
2023-03-07T08:05:57.604Z,99377.53
2023-03-07T08:08:29.553Z,99368.97
2023-03-07T08:11:01.578Z,99372.31
2023-03-07T08:13:33.526Z,99379.19
2023-03-07T08:16:18.823Z,99379.19
2023-03-07T08:18:57.179Z,99385.16
2023-03-07T08:21:29.219Z,99383.44
2023-03-07T08:24:01.423Z,99391.19
2023-03-07T08:26:33.503Z,99386.75
2023-03-07T08:29:05.450Z,99387.72
2023-03-07T08:31:37.406Z,99386.75
2023-03-07T08:34:09.353Z,99394.50
2023-03-07T08:36:41.297Z,99390.06
2023-03-07T08:39:24.692Z,99394.41
2023-03-07T08:41:57.050Z,99397.09
2023-03-07T08:44:29.088Z,99402.19
2023-03-07T08:47:01.193Z,99407.34
2023-03-07T08:49:33.320Z,99396.16
2023-03-07T08:52:05.582Z,99394.44
2023-03-07T08:54:37.562Z,99396.13
2023-03-07T08:57:09.695Z,99399.47
2023-03-07T08:59:42.179Z,99403.81
2023-03-07T09:02:14.208Z,99410.72
2023-03-07T09:04:46.241Z,99408.88
2023-03-07T09:07:19.553Z,99404.69
2023-03-07T09:09:51.531Z,99403.66
2023-03-07T09:12:23.572Z,99399.38
2023-03-07T09:14:55.613Z,99402.88
2023-03-07T09:17:27.600Z,99408.06
2023-03-07T09:19:59.680Z,99400.22
2023-03-07T09:22:32.219Z,99401.81
2023-03-07T09:25:06.577Z,99395.84
2023-03-07T09:27:40.898Z,99405.19
2023-03-07T09:30:15.726Z,99410.28
2023-03-07T09:32:47.669Z,99414.44
2023-03-07T09:35:19.590Z,99412.75
2023-03-07T09:37:51.574Z,99412.69
2023-03-07T09:40:26.716Z,99415.19
2023-03-07T09:43:32.631Z,99429.16
2023-03-07T09:46:54.948Z,99417.13
2023-03-07T09:49:46.546Z,99413.84
2023-03-07T09:52:29.432Z,99417.06
2023-03-07T09:55:12.038Z,99416.00
2023-03-07T09:57:58.715Z,99414.91
2023-03-07T10:00:41.733Z,99424.38
2023-03-07T10:03:42.008Z,99412.94
2023-03-07T10:06:25.214Z,99417.25
2023-03-07T10:08:59.228Z,99423.25
2023-03-07T10:11:48.141Z,99416.66
2023-03-07T10:14:45.255Z,99420.91
2023-03-07T10:17:39.828Z,99423.63
2023-03-07T10:20:38.296Z,99421.78
2023-03-07T10:23:32.167Z,99431.94
2023-03-07T10:26:12.977Z,99434.72
2023-03-07T10:28:46.596Z,99437.31
2023-03-07T10:31:39.494Z,99432.28
2023-03-07T10:34:32.663Z,99436.81
2023-03-07T10:37:22.285Z,99428.31
2023-03-07T10:39:57.150Z,99431.75
2023-03-07T10:42:35.698Z,99441.38
2023-03-07T10:45:12.930Z,99449.69
2023-03-07T10:47:44.956Z,99439.56
2023-03-07T10:50:57.590Z,99451.63
2023-03-07T10:53:34.351Z,99453.34
2023-03-07T10:56:18.858Z,99449.03
2023-03-07T10:59:09.560Z,99445.53
2023-03-07T11:01:59.642Z,99446.31
2023-03-07T11:04:45.849Z,99437.47
2023-03-07T11:07:36.556Z,99439.78
2023-03-07T11:10:39.631Z,99444.53
2023-03-07T11:13:20.842Z,99444.09
2023-03-07T11:16:11.611Z,99445.56
2023-03-07T11:18:45.715Z,99436.50
2023-03-07T11:21:30.398Z,99433.81
2023-03-07T11:24:30.021Z,99437.44
2023-03-07T11:27:06.640Z,99436.25
2023-03-07T11:29:38.668Z,99430.72
2023-03-07T11:32:22.459Z,99436.84
2023-03-07T11:35:04.351Z,99439.38
2023-03-07T11:38:16.675Z,99433.78
2023-03-07T11:41:11.331Z,99441.78
2023-03-07T11:44:29.944Z,99448.28
2023-03-07T11:47:23.084Z,99449.19
2023-03-07T11:50:23.714Z,99449.91
2023-03-07T11:53:23.677Z,99458.50
2023-03-07T11:56:15.275Z,99449.84
2023-03-07T11:59:30.547Z,99445.16
2023-03-07T12:02:20.431Z,99456.78
2023-03-07T12:05:37.698Z,99448.16
2023-03-07T12:08:54.648Z,99466.16
2023-03-07T12:11:51.769Z,99460.28
2023-03-07T12:14:35.930Z,99461.22
2023-03-07T12:17:07.951Z,99462.75
2023-03-07T12:20:15.104Z,99463.34
2023-03-07T12:23:11.790Z,99454.13
2023-03-07T12:25:50.656Z,99452.59
2023-03-07T12:28:35.807Z,99454.31
2023-03-07T12:31:40.774Z,99452.13
2023-03-07T12:34:28.641Z,99456.56
2023-03-07T12:37:14.940Z,99459.84
2023-03-07T12:40:04.610Z,99457.75
2023-03-07T12:43:13.788Z,99457.25
2023-03-07T12:45:58.555Z,99453.69
2023-03-07T12:48:41.073Z,99459.78
2023-03-07T12:51:37.279Z,99456.91
2023-03-07T12:54:14.749Z,99459.72
2023-03-07T12:57:44.707Z,99452.44
2023-03-07T13:00:20.890Z,99467.34
2023-03-07T13:03:06.755Z,99473.19
2023-03-07T13:05:39.493Z,99471.78
2023-03-07T13:08:22.357Z,99475.56
2023-03-07T13:10:54.796Z,99469.75
2023-03-07T13:13:47.224Z,99473.94
2023-03-07T13:16:39.500Z,99472.25
2023-03-07T13:19:36.576Z,99474.72
2023-03-07T13:22:15.449Z,99472.03
2023-03-07T13:24:49.774Z,99476.97
2023-03-07T13:27:46.768Z,99483.75
2023-03-07T13:30:31.337Z,99472.25
2023-03-07T13:33:38.928Z,99473.22
2023-03-07T13:36:38.122Z,99476.78
2023-03-07T13:39:42.661Z,99476.47
2023-03-07T13:42:49.269Z,99476.75
2023-03-07T13:45:39.844Z,99477.34
2023-03-07T13:48:37.974Z,99469.47
2023-03-07T13:51:11.265Z,99472.19
2023-03-07T13:53:48.023Z,99472.91
2023-03-07T13:56:35.820Z,99476.88
2023-03-07T13:59:13.710Z,99485.72
2023-03-07T14:01:52.909Z,99479.00
2023-03-07T14:04:41.065Z,99493.66
2023-03-07T14:07:26.806Z,99495.66
2023-03-07T14:10:22.246Z,99490.69
2023-03-07T14:13:39.816Z,99496.00
2023-03-07T14:16:47.369Z,99490.81
2023-03-07T14:19:48.258Z,99496.09
2023-03-07T14:22:35.828Z,99496.97
2023-03-07T14:25:18.331Z,99498.00
2023-03-07T14:28:23.335Z,99497.94
2023-03-07T14:31:05.701Z,99500.50
2023-03-07T14:33:39.764Z,99508.06
2023-03-07T14:36:25.812Z,99510.44
2023-03-07T14:39:04.357Z,99501.75
2023-03-07T14:41:50.508Z,99496.75
2023-03-07T14:44:39.490Z,99507.31
2023-03-07T14:47:52.279Z,99505.63
2023-03-07T14:50:29.467Z,99507.50
2023-03-07T14:53:15.111Z,99500.03
2023-03-07T14:55:50.602Z,99512.38
2023-03-07T14:58:32.604Z,99513.22
2023-03-07T15:01:16.284Z,99514.91
2023-03-07T15:03:53.589Z,99517.50
2023-03-07T15:06:29.243Z,99527.84
2023-03-07T15:09:04.701Z,99531.63
2023-03-07T15:11:41.728Z,99536.22
2023-03-07T15:14:23.572Z,99536.28
2023-03-07T15:17:04.487Z,99539.94
2023-03-07T15:20:03.370Z,99541.91
2023-03-07T15:22:39.658Z,99545.34
2023-03-07T15:25:26.174Z,99542.13
2023-03-07T15:28:01.358Z,99542.97
2023-03-07T15:30:37.359Z,99543.72
2023-03-07T15:33:18.632Z,99533.44
2023-03-07T15:36:15.378Z,99545.63
2023-03-07T15:38:53.096Z,99547.38
2023-03-07T15:41:34.410Z,99550.06
2023-03-07T15:44:12.627Z,99550.19
2023-03-07T15:46:54.262Z,99545.84
2023-03-07T15:49:46.144Z,99552.88
2023-03-07T15:55:58.772Z,99556.41
2023-03-07T15:58:31.446Z,99554.72
2023-03-07T16:01:23.719Z,99555.53
2023-03-07T16:04:04.055Z,99551.22
2023-03-07T16:06:45.908Z,99561.66
2023-03-07T16:09:18.998Z,99551.25
2023-03-07T16:11:51.058Z,99551.22
2023-03-07T16:14:28.301Z,99556.41
2023-03-07T16:17:12.115Z,99556.41
2023-03-07T16:19:44.476Z,99562.47
2023-03-07T16:22:19.316Z,99565.03
2023-03-07T16:24:51.793Z,99573.69
2023-03-07T16:27:27.781Z,99574.53
2023-03-07T16:30:00.377Z,99576.22
2023-03-07T16:32:32.870Z,99572.88
2023-03-07T16:35:24.385Z,99571.25
2023-03-07T16:37:57.191Z,99580.72
2023-03-07T16:40:30.195Z,99582.44
2023-03-07T16:43:02.796Z,99591.09
2023-03-07T16:45:35.424Z,99589.41
2023-03-07T16:48:12.877Z,99596.44
2023-03-07T16:50:44.883Z,99590.41
2023-03-07T16:53:18.697Z,99592.22
2023-03-07T16:55:51.310Z,99593.97
2023-03-07T16:58:31.222Z,99600.91
2023-03-07T17:01:03.410Z,99605.22
2023-03-07T17:03:36.291Z,99602.63
2023-03-07T17:06:14.500Z,99599.16
2023-03-07T17:08:46.634Z,99600.03
2023-03-07T17:11:22.710Z,99602.63
2023-03-07T17:13:58.905Z,99614.75
2023-03-07T17:16:43.714Z,99619.91
2023-03-07T17:19:28.281Z,99622.50
2023-03-07T17:22:02.992Z,99626.81
2023-03-07T17:24:35.040Z,99630.25
2023-03-07T17:27:07.377Z,99636.31
2023-03-07T17:29:43.917Z,99638.03
2023-03-07T17:32:16.952Z,99644.06
2023-03-07T17:34:49.259Z,99655.28
2023-03-07T17:37:21.902Z,99649.25
2023-03-07T17:39:54.509Z,99654.41
2023-03-07T17:42:29.272Z,99656.16
2023-03-07T17:45:01.222Z,99655.25
2023-03-07T17:47:33.840Z,99656.97
2023-03-07T17:50:27.469Z,99656.97
2023-03-07T17:52:59.513Z,99665.59
2023-03-07T17:55:32.881Z,99663.84
2023-03-07T17:58:09.544Z,99669.00
2023-03-07T18:00:41.689Z,99681.06
2023-03-07T18:03:15.676Z,99678.47
2023-03-07T18:06:21.453Z,99686.19
2023-03-07T18:08:53.790Z,99686.19
2023-03-07T18:11:55.517Z,99691.31
2023-03-07T18:14:28.212Z,99691.34
2023-03-07T18:17:01.958Z,99693.94
2023-03-07T18:19:34.479Z,99701.69
2023-03-07T18:22:06.629Z,99696.50
2023-03-07T18:24:38.686Z,99703.38
2023-03-07T18:27:10.814Z,99706.81
2023-03-07T18:29:42.922Z,99701.63
2023-03-07T18:32:29.255Z,99705.94
2023-03-07T18:35:02.046Z,99703.34
2023-03-07T18:37:34.040Z,99713.69
2023-03-07T18:43:34.860Z,99711.00
2023-03-07T18:46:10.071Z,99720.47
2023-03-07T18:48:42.266Z,99720.44
2023-03-07T18:51:18.315Z,99724.72
2023-03-07T18:53:52.075Z,99723.78
2023-03-07T18:56:24.461Z,99722.94
2023-03-07T18:59:01.597Z,99726.31
2023-03-07T19:01:36.623Z,99725.34
2023-03-07T19:04:09.318Z,99728.84
2023-03-07T19:06:46.141Z,99732.22
2023-03-07T19:09:20.417Z,99736.44
2023-03-07T19:11:53.020Z,99735.53
2023-03-07T19:14:26.491Z,99742.38
2023-03-07T19:16:58.531Z,99743.28
2023-03-07T19:19:30.624Z,99751.03
2023-03-07T19:22:02.698Z,99752.75
2023-03-07T19:24:34.836Z,99756.19
2023-03-07T19:27:06.967Z,99759.59
2023-03-07T19:29:39.029Z,99762.13
2023-03-07T19:32:11.116Z,99762.13
2023-03-07T19:34:43.522Z,99772.41
2023-03-07T19:37:15.572Z,99777.53
2023-03-07T19:39:54.607Z,99772.38
2023-03-07T19:42:26.771Z,99780.13
2023-03-07T19:45:04.128Z,99778.38
2023-03-07T19:47:36.318Z,99775.78
2023-03-07T19:50:09.769Z,99783.47
2023-03-07T19:52:42.209Z,99778.34
2023-03-07T19:55:14.413Z,99786.88
2023-03-07T19:57:47.074Z,99783.34
2023-03-07T20:00:20.318Z,99789.44
2023-03-07T20:02:52.379Z,99791.16
2023-03-07T20:05:24.433Z,99790.22
2023-03-07T20:07:56.975Z,99801.38
2023-03-07T20:10:29.194Z,99791.09
2023-03-07T20:13:01.266Z,99794.50
2023-03-07T20:15:35.287Z,99794.56
2023-03-07T20:18:07.371Z,99798.84
2023-03-07T20:20:39.334Z,99796.22
2023-03-07T20:23:23.675Z,99803.09
2023-03-07T20:26:10.284Z,99803.88
2023-03-07T20:28:42.660Z,99806.34
2023-03-07T20:31:15.423Z,99807.91
2023-03-07T20:33:48.357Z,99806.28
2023-03-07T20:36:29.953Z,99808.06
2023-03-07T20:39:07.849Z,99817.50
2023-03-07T20:41:40.956Z,99813.22
2023-03-07T20:44:15.573Z,99820.16
2023-03-07T20:46:47.696Z,99821.59
2023-03-07T20:49:19.779Z,99822.53
2023-03-07T20:51:52.606Z,99817.38
2023-03-07T20:54:24.690Z,99829.47
2023-03-07T20:56:56.873Z,99823.47
2023-03-07T20:59:29.074Z,99824.31
2023-03-07T21:02:01.326Z,99837.22
2023-03-07T21:04:33.460Z,99833.78
2023-03-07T21:07:05.556Z,99831.28
2023-03-07T21:09:41.471Z,99835.56
2023-03-07T21:12:13.677Z,99846.66
2023-03-07T21:14:45.805Z,99842.25
2023-03-07T21:17:17.887Z,99847.31
2023-03-07T21:19:49.859Z,99850.00
2023-03-07T21:22:23.132Z,99848.44
2023-03-07T21:24:55.269Z,99848.41
2023-03-07T21:27:28.369Z,99850.19
2023-03-07T21:30:00.425Z,99854.53
2023-03-07T21:32:32.597Z,99850.88
2023-03-07T21:35:05.173Z,99849.88
2023-03-07T21:37:37.698Z,99849.84
2023-03-07T21:40:11.371Z,99853.22
2023-03-07T21:42:43.651Z,99858.47
2023-03-07T21:45:16.274Z,99855.91
2023-03-07T21:47:53.316Z,99854.97
2023-03-07T21:50:25.451Z,99860.72
2023-03-07T21:52:57.609Z,99862.38
2023-03-07T21:55:29.601Z,99861.53
2023-03-07T21:58:01.880Z,99872.56
2023-03-07T22:00:33.902Z,99871.63
2023-03-07T22:03:05.897Z,99877.59
2023-03-07T22:05:39.428Z,99878.22
2023-03-07T22:08:11.656Z,99876.63
2023-03-07T22:10:44.621Z,99888.69
2023-03-07T22:13:16.584Z,99890.22
2023-03-07T22:15:48.656Z,99891.00
2023-03-07T22:18:20.648Z,99891.00
2023-03-07T22:20:53.009Z,99887.44
2023-03-07T22:23:28.608Z,99894.28
2023-03-07T22:26:07.410Z,99890.88
2023-03-07T22:28:43.092Z,99900.34
2023-03-07T22:31:15.468Z,99896.13
2023-03-07T22:33:47.755Z,99901.19
2023-03-07T22:36:19.972Z,99909.69
2023-03-07T22:38:57.052Z,99907.88
2023-03-07T22:41:29.357Z,99902.66
2023-03-07T22:44:01.417Z,99911.09
2023-03-07T22:46:33.490Z,99899.09
2023-03-07T22:49:05.613Z,99909.41
2023-03-07T22:51:39.924Z,99907.72
2023-03-07T22:54:12.165Z,99900.91
2023-03-07T22:56:44.212Z,99905.13
2023-03-07T22:59:16.255Z,99906.09
2023-03-07T23:01:48.654Z,99904.50
2023-03-07T23:04:20.772Z,99912.19
2023-03-07T23:06:53.520Z,99900.22
2023-03-07T23:09:25.603Z,99910.53
2023-03-07T23:11:58.130Z,99906.97
2023-03-07T23:14:30.149Z,99915.66
2023-03-07T23:17:02.166Z,99918.31
2023-03-07T23:19:34.344Z,99930.41
2023-03-07T23:22:12.126Z,99922.72
2023-03-07T23:24:44.198Z,99919.16
2023-03-07T23:27:16.209Z,99916.53
2023-03-07T23:29:52.446Z,99914.00
2023-03-07T23:32:25.262Z,99920.03
2023-03-07T23:34:57.295Z,99919.16
2023-03-07T23:37:29.727Z,99922.53
2023-03-07T23:40:01.723Z,99920.03
2023-03-07T23:42:33.835Z,99920.78
2023-03-07T23:45:06.444Z,99919.06
2023-03-07T23:47:43.139Z,99905.47
2023-03-07T23:50:15.970Z,99918.31
2023-03-07T23:52:52.346Z,99914.84
2023-03-07T23:55:24.459Z,99914.91
2023-03-07T23:57:56.512Z,99921.72
